sensor_id;sensor_type;location;lat;lon;timestamp;P1;durP1;ratioP1;P2;durP2;ratioP2
65375;SDS011;51976;47.332;9.404;2022-12-20T00:01:39;2.55;;;1.60;;
65375;SDS011;51976;47.332;9.404;2022-12-20T00:04:04;2.90;;;1.65;;
65375;SDS011;51976;47.332;9.404;2022-12-20T00:06:29;2.97;;;1.30;;
65375;SDS011;51976;47.332;9.404;2022-12-20T00:08:55;2.38;;;1.40;;
65375;SDS011;51976;47.332;9.404;2022-12-20T00:11:23;3.00;;;1.42;;
65375;SDS011;51976;47.332;9.404;2022-12-20T00:13:49;1.88;;;1.55;;
65375;SDS011;51976;47.332;9.404;2022-12-20T00:16:16;1.92;;;1.20;;
65375;SDS011;51976;47.332;9.404;2022-12-20T00:18:43;2.08;;;1.33;;
65375;SDS011;51976;47.332;9.404;2022-12-20T00:21:10;2.10;;;1.27;;
65375;SDS011;51976;47.332;9.404;2022-12-20T00:23:37;2.20;;;1.40;;
65375;SDS011;51976;47.332;9.404;2022-12-20T00:26:04;2.13;;;1.27;;
65375;SDS011;51976;47.332;9.404;2022-12-20T00:28:34;2.38;;;1.30;;
65375;SDS011;51976;47.332;9.404;2022-12-20T00:31:00;2.15;;;1.55;;
65375;SDS011;51976;47.332;9.404;2022-12-20T00:33:26;2.58;;;1.20;;
65375;SDS011;51976;47.332;9.404;2022-12-20T00:35:53;1.58;;;0.90;;
65375;SDS011;51976;47.332;9.404;2022-12-20T00:38:22;2.13;;;1.50;;
65375;SDS011;51976;47.332;9.404;2022-12-20T00:40:58;2.30;;;1.33;;
65375;SDS011;51976;47.332;9.404;2022-12-20T00:43:25;1.55;;;1.20;;
65375;SDS011;51976;47.332;9.404;2022-12-20T00:45:51;1.30;;;0.90;;
65375;SDS011;51976;47.332;9.404;2022-12-20T00:48:16;2.65;;;1.50;;
65375;SDS011;51976;47.332;9.404;2022-12-20T00:50:42;2.35;;;1.40;;
65375;SDS011;51976;47.332;9.404;2022-12-20T00:53:07;1.50;;;1.10;;
65375;SDS011;51976;47.332;9.404;2022-12-20T00:55:34;2.22;;;1.40;;
65375;SDS011;51976;47.332;9.404;2022-12-20T00:58:04;2.38;;;1.27;;
65375;SDS011;51976;47.332;9.404;2022-12-20T01:00:29;1.48;;;1.08;;
65375;SDS011;51976;47.332;9.404;2022-12-20T01:02:55;2.05;;;1.42;;
65375;SDS011;51976;47.332;9.404;2022-12-20T01:05:20;1.83;;;1.08;;
65375;SDS011;51976;47.332;9.404;2022-12-20T01:07:46;2.28;;;1.45;;
65375;SDS011;51976;47.332;9.404;2022-12-20T01:10:11;1.35;;;0.90;;
65375;SDS011;51976;47.332;9.404;2022-12-20T01:12:36;1.77;;;1.08;;
65375;SDS011;51976;47.332;9.404;2022-12-20T01:15:02;1.95;;;1.20;;
65375;SDS011;51976;47.332;9.404;2022-12-20T01:17:28;2.47;;;1.42;;
65375;SDS011;51976;47.332;9.404;2022-12-20T01:19:53;1.50;;;0.90;;
65375;SDS011;51976;47.332;9.404;2022-12-20T01:22:19;3.15;;;1.17;;
65375;SDS011;51976;47.332;9.404;2022-12-20T01:24:44;1.77;;;1.13;;
65375;SDS011;51976;47.332;9.404;2022-12-20T01:27:09;2.08;;;1.10;;
65375;SDS011;51976;47.332;9.404;2022-12-20T01:29:35;1.73;;;1.08;;
65375;SDS011;51976;47.332;9.404;2022-12-20T01:32:00;2.03;;;1.10;;
65375;SDS011;51976;47.332;9.404;2022-12-20T01:34:25;1.92;;;1.23;;
65375;SDS011;51976;47.332;9.404;2022-12-20T01:36:51;1.40;;;1.00;;
65375;SDS011;51976;47.332;9.404;2022-12-20T01:39:16;2.15;;;1.02;;
65375;SDS011;51976;47.332;9.404;2022-12-20T01:41:42;1.73;;;1.25;;
65375;SDS011;51976;47.332;9.404;2022-12-20T01:47:14;1.42;;;1.15;;
65375;SDS011;51976;47.332;9.404;2022-12-20T01:49:43;2.08;;;1.10;;
65375;SDS011;51976;47.332;9.404;2022-12-20T01:52:19;1.63;;;1.00;;
65375;SDS011;51976;47.332;9.404;2022-12-20T01:55:03;1.70;;;1.10;;
65375;SDS011;51976;47.332;9.404;2022-12-20T01:57:37;1.70;;;0.90;;
65375;SDS011;51976;47.332;9.404;2022-12-20T02:00:07;1.77;;;1.10;;
65375;SDS011;51976;47.332;9.404;2022-12-20T02:02:33;1.27;;;0.80;;
65375;SDS011;51976;47.332;9.404;2022-12-20T02:05:00;1.63;;;0.95;;
65375;SDS011;51976;47.332;9.404;2022-12-20T02:07:27;1.80;;;0.80;;
65375;SDS011;51976;47.332;9.404;2022-12-20T02:09:54;1.58;;;0.88;;
65375;SDS011;51976;47.332;9.404;2022-12-20T02:12:23;1.40;;;0.80;;
65375;SDS011;51976;47.332;9.404;2022-12-20T02:14:56;1.63;;;1.00;;
65375;SDS011;51976;47.332;9.404;2022-12-20T02:17:46;1.20;;;0.80;;
65375;SDS011;51976;47.332;9.404;2022-12-20T02:20:31;1.10;;;0.80;;
65375;SDS011;51976;47.332;9.404;2022-12-20T02:23:24;1.38;;;1.00;;
65375;SDS011;51976;47.332;9.404;2022-12-20T02:26:22;1.60;;;0.73;;
65375;SDS011;51976;47.332;9.404;2022-12-20T02:29:35;1.52;;;0.90;;
65375;SDS011;51976;47.332;9.404;2022-12-20T02:32:11;1.88;;;0.90;;
65375;SDS011;51976;47.332;9.404;2022-12-20T02:34:41;0.90;;;0.70;;
65375;SDS011;51976;47.332;9.404;2022-12-20T02:37:07;1.67;;;0.88;;
65375;SDS011;51976;47.332;9.404;2022-12-20T02:39:33;1.00;;;0.70;;
65375;SDS011;51976;47.332;9.404;2022-12-20T02:42:05;2.78;;;1.20;;
65375;SDS011;51976;47.332;9.404;2022-12-20T02:44:34;1.92;;;0.93;;
65375;SDS011;51976;47.332;9.404;2022-12-20T02:47:23;1.35;;;0.70;;
65375;SDS011;51976;47.332;9.404;2022-12-20T02:49:54;1.17;;;0.68;;
65375;SDS011;51976;47.332;9.404;2022-12-20T02:52:21;1.50;;;1.00;;
65375;SDS011;51976;47.332;9.404;2022-12-20T02:54:50;1.08;;;0.70;;
65375;SDS011;51976;47.332;9.404;2022-12-20T02:57:18;1.23;;;0.90;;
65375;SDS011;51976;47.332;9.404;2022-12-20T02:59:59;1.00;;;0.80;;
65375;SDS011;51976;47.332;9.404;2022-12-20T03:02:32;1.40;;;0.60;;
65375;SDS011;51976;47.332;9.404;2022-12-20T03:05:18;1.50;;;0.70;;
65375;SDS011;51976;47.332;9.404;2022-12-20T03:07:46;1.35;;;0.70;;
65375;SDS011;51976;47.332;9.404;2022-12-20T03:10:11;1.83;;;0.90;;
65375;SDS011;51976;47.332;9.404;2022-12-20T03:12:37;1.52;;;0.70;;
65375;SDS011;51976;47.332;9.404;2022-12-20T03:15:02;1.10;;;0.75;;
65375;SDS011;51976;47.332;9.404;2022-12-20T03:17:28;2.00;;;0.98;;
65375;SDS011;51976;47.332;9.404;2022-12-20T03:19:53;1.73;;;0.82;;
65375;SDS011;51976;47.332;9.404;2022-12-20T03:22:18;1.38;;;0.77;;
65375;SDS011;51976;47.332;9.404;2022-12-20T03:24:44;1.17;;;0.80;;
65375;SDS011;51976;47.332;9.404;2022-12-20T03:27:10;1.30;;;0.77;;
65375;SDS011;51976;47.332;9.404;2022-12-20T03:29:35;1.17;;;0.60;;
65375;SDS011;51976;47.332;9.404;2022-12-20T03:32:00;0.90;;;0.57;;
65375;SDS011;51976;47.332;9.404;2022-12-20T03:34:26;1.58;;;0.80;;
65375;SDS011;51976;47.332;9.404;2022-12-20T03:36:51;1.30;;;0.70;;
65375;SDS011;51976;47.332;9.404;2022-12-20T03:39:17;1.60;;;0.70;;
65375;SDS011;51976;47.332;9.404;2022-12-20T03:41:42;1.45;;;0.70;;
65375;SDS011;51976;47.332;9.404;2022-12-20T03:44:07;1.33;;;0.68;;
65375;SDS011;51976;47.332;9.404;2022-12-20T03:46:33;0.75;;;0.50;;
65375;SDS011;51976;47.332;9.404;2022-12-20T03:48:58;1.45;;;0.75;;
65375;SDS011;51976;47.332;9.404;2022-12-20T03:51:24;1.13;;;0.68;;
65375;SDS011;51976;47.332;9.404;2022-12-20T03:53:49;1.13;;;0.70;;
65375;SDS011;51976;47.332;9.404;2022-12-20T03:56:14;1.45;;;0.77;;
65375;SDS011;51976;47.332;9.404;2022-12-20T03:58:40;1.30;;;0.80;;
65375;SDS011;51976;47.332;9.404;2022-12-20T04:01:18;1.50;;;0.70;;
65375;SDS011;51976;47.332;9.404;2022-12-20T04:03:48;1.08;;;0.70;;
65375;SDS011;51976;47.332;9.404;2022-12-20T04:06:13;0.98;;;0.65;;
65375;SDS011;51976;47.332;9.404;2022-12-20T04:08:39;1.20;;;0.60;;
65375;SDS011;51976;47.332;9.404;2022-12-20T04:11:04;1.08;;;0.70;;
65375;SDS011;51976;47.332;9.404;2022-12-20T04:13:42;1.33;;;0.70;;
65375;SDS011;51976;47.332;9.404;2022-12-20T04:16:08;0.70;;;0.40;;
65375;SDS011;51976;47.332;9.404;2022-12-20T04:18:35;0.80;;;0.50;;
65375;SDS011;51976;47.332;9.404;2022-12-20T04:21:00;1.17;;;0.60;;
65375;SDS011;51976;47.332;9.404;2022-12-20T04:23:25;0.98;;;0.50;;
65375;SDS011;51976;47.332;9.404;2022-12-20T04:25:51;1.20;;;0.77;;
65375;SDS011;51976;47.332;9.404;2022-12-20T04:28:16;1.08;;;0.60;;
65375;SDS011;51976;47.332;9.404;2022-12-20T04:30:42;1.08;;;0.63;;
65375;SDS011;51976;47.332;9.404;2022-12-20T04:33:07;0.75;;;0.55;;
65375;SDS011;51976;47.332;9.404;2022-12-20T04:35:33;0.90;;;0.60;;
65375;SDS011;51976;47.332;9.404;2022-12-20T04:37:58;1.13;;;0.60;;
65375;SDS011;51976;47.332;9.404;2022-12-20T04:40:23;0.70;;;0.43;;
65375;SDS011;51976;47.332;9.404;2022-12-20T04:42:49;1.30;;;0.60;;
65375;SDS011;51976;47.332;9.404;2022-12-20T04:45:14;0.93;;;0.50;;
65375;SDS011;51976;47.332;9.404;2022-12-20T04:47:40;1.10;;;0.60;;
65375;SDS011;51976;47.332;9.404;2022-12-20T04:50:05;1.05;;;0.60;;
65375;SDS011;51976;47.332;9.404;2022-12-20T04:52:31;1.00;;;0.50;;
65375;SDS011;51976;47.332;9.404;2022-12-20T04:55:16;0.70;;;0.50;;
65375;SDS011;51976;47.332;9.404;2022-12-20T04:57:42;1.20;;;0.90;;
65375;SDS011;51976;47.332;9.404;2022-12-20T05:00:08;0.98;;;0.60;;
65375;SDS011;51976;47.332;9.404;2022-12-20T05:02:34;1.27;;;0.80;;
65375;SDS011;51976;47.332;9.404;2022-12-20T05:04:59;1.10;;;0.70;;
65375;SDS011;51976;47.332;9.404;2022-12-20T05:07:24;1.13;;;0.60;;
65375;SDS011;51976;47.332;9.404;2022-12-20T05:09:50;1.17;;;0.75;;
65375;SDS011;51976;47.332;9.404;2022-12-20T05:12:15;0.95;;;0.60;;
65375;SDS011;51976;47.332;9.404;2022-12-20T05:14:40;1.10;;;0.60;;
65375;SDS011;51976;47.332;9.404;2022-12-20T05:17:06;1.15;;;0.60;;
65375;SDS011;51976;47.332;9.404;2022-12-20T05:19:33;1.00;;;0.60;;
65375;SDS011;51976;47.332;9.404;2022-12-20T05:21:58;1.10;;;0.70;;
65375;SDS011;51976;47.332;9.404;2022-12-20T05:24:44;1.00;;;0.60;;
65375;SDS011;51976;47.332;9.404;2022-12-20T05:27:29;1.67;;;0.68;;
65375;SDS011;51976;47.332;9.404;2022-12-20T05:29:54;0.95;;;0.50;;
65375;SDS011;51976;47.332;9.404;2022-12-20T05:32:20;1.10;;;0.70;;
65375;SDS011;51976;47.332;9.404;2022-12-20T05:34:45;1.08;;;0.68;;
65375;SDS011;51976;47.332;9.404;2022-12-20T05:37:10;1.15;;;0.80;;
65375;SDS011;51976;47.332;9.404;2022-12-20T05:39:36;2.60;;;0.77;;
65375;SDS011;51976;47.332;9.404;2022-12-20T05:42:01;1.08;;;0.60;;
65375;SDS011;51976;47.332;9.404;2022-12-20T05:44:27;1.15;;;0.68;;
65375;SDS011;51976;47.332;9.404;2022-12-20T05:46:52;0.95;;;0.60;;
65375;SDS011;51976;47.332;9.404;2022-12-20T05:49:17;0.60;;;0.50;;
65375;SDS011;51976;47.332;9.404;2022-12-20T05:51:43;0.90;;;0.60;;
65375;SDS011;51976;47.332;9.404;2022-12-20T05:54:08;1.02;;;0.68;;
65375;SDS011;51976;47.332;9.404;2022-12-20T05:56:34;1.92;;;1.08;;
65375;SDS011;51976;47.332;9.404;2022-12-20T05:59:00;1.10;;;0.68;;
65375;SDS011;51976;47.332;9.404;2022-12-20T06:01:25;0.82;;;0.60;;
65375;SDS011;51976;47.332;9.404;2022-12-20T06:03:51;1.02;;;0.60;;
65375;SDS011;51976;47.332;9.404;2022-12-20T06:06:16;0.88;;;0.63;;
65375;SDS011;51976;47.332;9.404;2022-12-20T06:08:42;1.83;;;0.90;;
65375;SDS011;51976;47.332;9.404;2022-12-20T06:11:07;1.30;;;0.70;;
65375;SDS011;51976;47.332;9.404;2022-12-20T06:13:33;1.00;;;0.68;;
65375;SDS011;51976;47.332;9.404;2022-12-20T06:15:58;1.00;;;0.80;;
65375;SDS011;51976;47.332;9.404;2022-12-20T06:18:26;0.90;;;0.60;;
65375;SDS011;51976;47.332;9.404;2022-12-20T06:20:52;2.90;;;0.90;;
65375;SDS011;51976;47.332;9.404;2022-12-20T06:23:18;0.90;;;0.60;;
65375;SDS011;51976;47.332;9.404;2022-12-20T06:25:44;1.50;;;0.82;;
65375;SDS011;51976;47.332;9.404;2022-12-20T06:28:10;1.90;;;0.77;;
65375;SDS011;51976;47.332;9.404;2022-12-20T06:30:35;0.90;;;0.52;;
65375;SDS011;51976;47.332;9.404;2022-12-20T06:33:01;1.00;;;0.60;;
65375;SDS011;51976;47.332;9.404;2022-12-20T06:35:27;1.15;;;0.90;;
65375;SDS011;51976;47.332;9.404;2022-12-20T06:37:52;1.23;;;0.70;;
65375;SDS011;51976;47.332;9.404;2022-12-20T06:40:18;1.10;;;0.70;;
65375;SDS011;51976;47.332;9.404;2022-12-20T06:42:43;1.20;;;0.70;;
65375;SDS011;51976;47.332;9.404;2022-12-20T06:45:09;1.02;;;0.63;;
65375;SDS011;51976;47.332;9.404;2022-12-20T06:47:35;1.10;;;0.68;;
65375;SDS011;51976;47.332;9.404;2022-12-20T06:50:01;1.00;;;0.70;;
65375;SDS011;51976;47.332;9.404;2022-12-20T06:52:27;1.45;;;0.90;;
65375;SDS011;51976;47.332;9.404;2022-12-20T06:54:52;1.58;;;0.85;;
65375;SDS011;51976;47.332;9.404;2022-12-20T06:57:18;1.38;;;0.80;;
65375;SDS011;51976;47.332;9.404;2022-12-20T06:59:43;1.63;;;0.60;;
65375;SDS011;51976;47.332;9.404;2022-12-20T07:02:10;1.20;;;0.80;;
65375;SDS011;51976;47.332;9.404;2022-12-20T07:04:35;0.82;;;0.63;;
65375;SDS011;51976;47.332;9.404;2022-12-20T07:07:01;1.20;;;0.70;;
65375;SDS011;51976;47.332;9.404;2022-12-20T07:09:27;1.13;;;0.80;;
65375;SDS011;51976;47.332;9.404;2022-12-20T07:11:53;2.25;;;1.02;;
65375;SDS011;51976;47.332;9.404;2022-12-20T07:14:19;2.53;;;1.08;;
65375;SDS011;51976;47.332;9.404;2022-12-20T07:16:45;1.50;;;1.00;;
65375;SDS011;51976;47.332;9.404;2022-12-20T07:19:10;1.33;;;0.75;;
65375;SDS011;51976;47.332;9.404;2022-12-20T07:21:37;1.30;;;0.90;;
65375;SDS011;51976;47.332;9.404;2022-12-20T07:24:02;1.35;;;0.90;;
65375;SDS011;51976;47.332;9.404;2022-12-20T07:26:28;1.45;;;0.98;;
65375;SDS011;51976;47.332;9.404;2022-12-20T07:28:53;1.20;;;0.80;;
65375;SDS011;51976;47.332;9.404;2022-12-20T07:31:19;1.63;;;1.13;;
65375;SDS011;51976;47.332;9.404;2022-12-20T07:33:44;2.17;;;1.50;;
65375;SDS011;51976;47.332;9.404;2022-12-20T07:36:10;1.95;;;1.05;;
65375;SDS011;51976;47.332;9.404;2022-12-20T07:38:37;1.90;;;1.33;;
65375;SDS011;51976;47.332;9.404;2022-12-20T07:41:06;1.83;;;1.30;;
65375;SDS011;51976;47.332;9.404;2022-12-20T07:43:36;1.73;;;1.35;;
65375;SDS011;51976;47.332;9.404;2022-12-20T07:46:02;1.92;;;1.48;;
65375;SDS011;51976;47.332;9.404;2022-12-20T07:48:28;1.98;;;1.35;;
65375;SDS011;51976;47.332;9.404;2022-12-20T07:50:56;1.70;;;1.27;;
65375;SDS011;51976;47.332;9.404;2022-12-20T07:53:25;2.75;;;1.73;;
65375;SDS011;51976;47.332;9.404;2022-12-20T07:55:54;2.00;;;1.60;;
65375;SDS011;51976;47.332;9.404;2022-12-20T07:58:21;2.58;;;1.70;;
65375;SDS011;51976;47.332;9.404;2022-12-20T08:00:46;2.08;;;1.67;;
65375;SDS011;51976;47.332;9.404;2022-12-20T08:03:16;2.65;;;1.80;;
65375;SDS011;51976;47.332;9.404;2022-12-20T08:05:49;4.47;;;2.17;;
65375;SDS011;51976;47.332;9.404;2022-12-20T08:08:17;4.40;;;2.30;;
65375;SDS011;51976;47.332;9.404;2022-12-20T08:10:43;3.58;;;2.28;;
65375;SDS011;51976;47.332;9.404;2022-12-20T08:13:10;3.85;;;2.40;;
65375;SDS011;51976;47.332;9.404;2022-12-20T08:15:36;4.85;;;2.50;;
65375;SDS011;51976;47.332;9.404;2022-12-20T08:18:01;3.35;;;2.05;;
65375;SDS011;51976;47.332;9.404;2022-12-20T08:20:27;3.30;;;2.40;;
65375;SDS011;51976;47.332;9.404;2022-12-20T08:22:53;5.03;;;2.50;;
65375;SDS011;51976;47.332;9.404;2022-12-20T08:25:18;4.00;;;2.60;;
65375;SDS011;51976;47.332;9.404;2022-12-20T08:27:45;4.32;;;2.33;;
65375;SDS011;51976;47.332;9.404;2022-12-20T08:30:11;3.90;;;2.08;;
65375;SDS011;51976;47.332;9.404;2022-12-20T08:32:36;3.88;;;2.20;;
65375;SDS011;51976;47.332;9.404;2022-12-20T08:35:02;3.97;;;2.42;;
65375;SDS011;51976;47.332;9.404;2022-12-20T08:37:28;3.33;;;1.85;;
65375;SDS011;51976;47.332;9.404;2022-12-20T08:39:53;2.95;;;2.13;;
65375;SDS011;51976;47.332;9.404;2022-12-20T08:42:19;4.25;;;2.45;;
65375;SDS011;51976;47.332;9.404;2022-12-20T08:44:44;3.90;;;2.35;;
65375;SDS011;51976;47.332;9.404;2022-12-20T08:47:09;3.50;;;2.08;;
65375;SDS011;51976;47.332;9.404;2022-12-20T08:49:35;3.42;;;2.20;;
65375;SDS011;51976;47.332;9.404;2022-12-20T08:52:00;3.58;;;2.20;;
65375;SDS011;51976;47.332;9.404;2022-12-20T08:54:26;4.68;;;2.72;;
65375;SDS011;51976;47.332;9.404;2022-12-20T08:56:52;5.03;;;2.15;;
65375;SDS011;51976;47.332;9.404;2022-12-20T08:59:17;3.17;;;2.03;;
65375;SDS011;51976;47.332;9.404;2022-12-20T09:01:43;4.10;;;2.25;;
65375;SDS011;51976;47.332;9.404;2022-12-20T09:04:09;2.97;;;2.13;;
65375;SDS011;51976;47.332;9.404;2022-12-20T09:06:35;3.55;;;1.90;;
65375;SDS011;51976;47.332;9.404;2022-12-20T09:09:02;3.63;;;2.38;;
65375;SDS011;51976;47.332;9.404;2022-12-20T09:11:28;3.72;;;2.50;;
65375;SDS011;51976;47.332;9.404;2022-12-20T09:13:54;3.35;;;2.25;;
65375;SDS011;51976;47.332;9.404;2022-12-20T09:16:22;2.60;;;1.80;;
65375;SDS011;51976;47.332;9.404;2022-12-20T09:18:50;3.67;;;2.17;;
65375;SDS011;51976;47.332;9.404;2022-12-20T09:21:16;4.05;;;2.03;;
65375;SDS011;51976;47.332;9.404;2022-12-20T09:23:43;3.35;;;1.88;;
65375;SDS011;51976;47.332;9.404;2022-12-20T09:26:12;3.90;;;2.20;;
65375;SDS011;51976;47.332;9.404;2022-12-20T09:28:39;3.47;;;2.05;;
65375;SDS011;51976;47.332;9.404;2022-12-20T09:31:06;3.28;;;1.83;;
65375;SDS011;51976;47.332;9.404;2022-12-20T09:33:34;3.60;;;2.15;;
65375;SDS011;51976;47.332;9.404;2022-12-20T09:36:00;3.67;;;2.08;;
65375;SDS011;51976;47.332;9.404;2022-12-20T09:38:26;3.20;;;1.73;;
65375;SDS011;51976;47.332;9.404;2022-12-20T09:40:53;3.28;;;1.88;;
65375;SDS011;51976;47.332;9.404;2022-12-20T09:43:21;4.30;;;1.90;;
65375;SDS011;51976;47.332;9.404;2022-12-20T09:45:49;3.15;;;1.98;;
65375;SDS011;51976;47.332;9.404;2022-12-20T09:48:23;3.55;;;2.00;;
65375;SDS011;51976;47.332;9.404;2022-12-20T09:51:17;3.28;;;1.98;;
65375;SDS011;51976;47.332;9.404;2022-12-20T09:54:36;2.67;;;2.00;;
65375;SDS011;51976;47.332;9.404;2022-12-20T09:57:00;3.03;;;1.98;;
65375;SDS011;51976;47.332;9.404;2022-12-20T09:59:36;3.10;;;1.85;;
65375;SDS011;51976;47.332;9.404;2022-12-20T10:02:07;3.00;;;1.88;;
65375;SDS011;51976;47.332;9.404;2022-12-20T10:04:35;4.25;;;2.17;;
65375;SDS011;51976;47.332;9.404;2022-12-20T10:07:14;3.03;;;1.75;;
65375;SDS011;51976;47.332;9.404;2022-12-20T10:10:08;3.45;;;1.80;;
65375;SDS011;51976;47.332;9.404;2022-12-20T10:15:57;4.30;;;2.20;;
65375;SDS011;51976;47.332;9.404;2022-12-20T10:18:50;3.25;;;1.70;;
65375;SDS011;51976;47.332;9.404;2022-12-20T10:21:46;2.95;;;1.58;;
65375;SDS011;51976;47.332;9.404;2022-12-20T10:24:24;1.98;;;1.35;;
65375;SDS011;51976;47.332;9.404;2022-12-20T10:26:54;3.35;;;1.77;;
65375;SDS011;51976;47.332;9.404;2022-12-20T10:29:20;2.53;;;1.52;;
65375;SDS011;51976;47.332;9.404;2022-12-20T10:31:50;2.53;;;1.67;;
65375;SDS011;51976;47.332;9.404;2022-12-20T10:34:18;4.28;;;1.80;;
65375;SDS011;51976;47.332;9.404;2022-12-20T10:36:43;2.80;;;1.67;;
65375;SDS011;51976;47.332;9.404;2022-12-20T10:39:09;2.80;;;2.03;;
65375;SDS011;51976;47.332;9.404;2022-12-20T10:44:22;2.75;;;1.90;;
65375;SDS011;51976;47.332;9.404;2022-12-20T10:46:56;2.20;;;1.88;;
65375;SDS011;51976;47.332;9.404;2022-12-20T10:49:27;3.38;;;1.58;;
65375;SDS011;51976;47.332;9.404;2022-12-20T10:51:57;2.65;;;1.83;;
65375;SDS011;51976;47.332;9.404;2022-12-20T10:54:38;2.75;;;1.83;;
65375;SDS011;51976;47.332;9.404;2022-12-20T10:57:17;2.67;;;1.70;;
65375;SDS011;51976;47.332;9.404;2022-12-20T10:59:56;3.05;;;2.05;;
65375;SDS011;51976;47.332;9.404;2022-12-20T11:02:30;2.35;;;1.70;;
65375;SDS011;51976;47.332;9.404;2022-12-20T11:04:59;3.25;;;1.73;;
65375;SDS011;51976;47.332;9.404;2022-12-20T11:07:52;3.53;;;1.80;;
65375;SDS011;51976;47.332;9.404;2022-12-20T11:10:25;3.55;;;1.90;;
65375;SDS011;51976;47.332;9.404;2022-12-20T11:12:52;2.85;;;1.80;;
65375;SDS011;51976;47.332;9.404;2022-12-20T11:15:19;4.20;;;1.73;;
65375;SDS011;51976;47.332;9.404;2022-12-20T11:17:50;3.60;;;1.73;;
65375;SDS011;51976;47.332;9.404;2022-12-20T11:23:34;2.55;;;1.80;;
65375;SDS011;51976;47.332;9.404;2022-12-20T11:26:23;2.80;;;1.83;;
65375;SDS011;51976;47.332;9.404;2022-12-20T11:29:02;3.50;;;2.05;;
65375;SDS011;51976;47.332;9.404;2022-12-20T11:32:02;3.25;;;1.65;;
65375;SDS011;51976;47.332;9.404;2022-12-20T11:34:53;5.22;;;2.45;;
65375;SDS011;51976;47.332;9.404;2022-12-20T11:37:48;3.92;;;1.90;;
65375;SDS011;51976;47.332;9.404;2022-12-20T11:40:50;4.13;;;2.17;;
65375;SDS011;51976;47.332;9.404;2022-12-20T11:43:37;3.28;;;1.80;;
65375;SDS011;51976;47.332;9.404;2022-12-20T11:46:21;3.00;;;1.70;;
65375;SDS011;51976;47.332;9.404;2022-12-20T11:49:19;3.28;;;1.88;;
65375;SDS011;51976;47.332;9.404;2022-12-20T11:55:03;2.92;;;1.80;;
65375;SDS011;51976;47.332;9.404;2022-12-20T11:57:42;2.90;;;1.90;;
65375;SDS011;51976;47.332;9.404;2022-12-20T12:00:24;2.53;;;1.83;;
65375;SDS011;51976;47.332;9.404;2022-12-20T12:02:56;2.25;;;1.67;;
65375;SDS011;51976;47.332;9.404;2022-12-20T12:05:32;3.38;;;1.85;;
65375;SDS011;51976;47.332;9.404;2022-12-20T12:08:06;2.60;;;1.73;;
65375;SDS011;51976;47.332;9.404;2022-12-20T12:10:39;3.92;;;1.90;;
65375;SDS011;51976;47.332;9.404;2022-12-20T12:13:16;2.97;;;1.60;;
65375;SDS011;51976;47.332;9.404;2022-12-20T12:15:51;4.47;;;1.80;;
65375;SDS011;51976;47.332;9.404;2022-12-20T12:18:23;2.15;;;1.65;;
65375;SDS011;51976;47.332;9.404;2022-12-20T12:23:54;2.75;;;1.70;;
65375;SDS011;51976;47.332;9.404;2022-12-20T12:26:40;2.63;;;2.00;;
65375;SDS011;51976;47.332;9.404;2022-12-20T12:29:12;2.40;;;1.58;;
65375;SDS011;51976;47.332;9.404;2022-12-20T12:31:41;4.03;;;1.67;;
65375;SDS011;51976;47.332;9.404;2022-12-20T12:34:33;3.17;;;1.80;;
65375;SDS011;51976;47.332;9.404;2022-12-20T12:40:29;4.03;;;1.80;;
65375;SDS011;51976;47.332;9.404;2022-12-20T12:46:11;3.42;;;1.90;;
65375;SDS011;51976;47.332;9.404;2022-12-20T12:49:07;2.47;;;1.50;;
65375;SDS011;51976;47.332;9.404;2022-12-20T12:51:30;2.90;;;1.67;;
65375;SDS011;51976;47.332;9.404;2022-12-20T12:54:03;3.42;;;1.90;;
65375;SDS011;51976;47.332;9.404;2022-12-20T12:56:43;3.20;;;1.90;;
65375;SDS011;51976;47.332;9.404;2022-12-20T12:59:23;3.22;;;2.00;;
65375;SDS011;51976;47.332;9.404;2022-12-20T13:02:22;2.22;;;1.45;;
65375;SDS011;51976;47.332;9.404;2022-12-20T13:04:52;1.95;;;1.42;;
65375;SDS011;51976;47.332;9.404;2022-12-20T13:07:40;3.55;;;1.83;;
65375;SDS011;51976;47.332;9.404;2022-12-20T13:13:20;3.90;;;1.92;;
65375;SDS011;51976;47.332;9.404;2022-12-20T13:15:50;2.47;;;1.70;;
65375;SDS011;51976;47.332;9.404;2022-12-20T13:18:28;2.40;;;1.67;;
65375;SDS011;51976;47.332;9.404;2022-12-20T13:21:15;1.80;;;1.20;;
65375;SDS011;51976;47.332;9.404;2022-12-20T13:27:00;3.03;;;1.30;;
65375;SDS011;51976;47.332;9.404;2022-12-20T13:29:31;3.90;;;1.75;;
65375;SDS011;51976;47.332;9.404;2022-12-20T13:31:58;3.58;;;1.92;;
65375;SDS011;51976;47.332;9.404;2022-12-20T13:34:36;1.88;;;1.27;;
65375;SDS011;51976;47.332;9.404;2022-12-20T13:37:25;2.88;;;1.70;;
65375;SDS011;51976;47.332;9.404;2022-12-20T13:40:18;2.50;;;1.80;;
65375;SDS011;51976;47.332;9.404;2022-12-20T13:42:47;2.33;;;1.42;;
65375;SDS011;51976;47.332;9.404;2022-12-20T13:45:17;2.13;;;1.30;;
65375;SDS011;51976;47.332;9.404;2022-12-20T13:47:44;3.78;;;1.80;;
65375;SDS011;51976;47.332;9.404;2022-12-20T13:50:27;2.70;;;1.65;;
65375;SDS011;51976;47.332;9.404;2022-12-20T13:52:56;2.10;;;1.40;;
65375;SDS011;51976;47.332;9.404;2022-12-20T13:55:32;2.47;;;1.63;;
65375;SDS011;51976;47.332;9.404;2022-12-20T13:58:06;3.55;;;1.73;;
65375;SDS011;51976;47.332;9.404;2022-12-20T14:00:36;2.22;;;1.60;;
65375;SDS011;51976;47.332;9.404;2022-12-20T14:03:02;2.53;;;1.65;;
65375;SDS011;51976;47.332;9.404;2022-12-20T14:05:32;2.65;;;1.60;;
65375;SDS011;51976;47.332;9.404;2022-12-20T14:08:01;4.00;;;1.65;;
65375;SDS011;51976;47.332;9.404;2022-12-20T14:10:32;2.78;;;1.73;;
65375;SDS011;51976;47.332;9.404;2022-12-20T14:12:58;2.50;;;1.60;;
65375;SDS011;51976;47.332;9.404;2022-12-20T14:15:28;3.85;;;1.70;;
65375;SDS011;51976;47.332;9.404;2022-12-20T14:18:04;2.63;;;1.58;;
65375;SDS011;51976;47.332;9.404;2022-12-20T14:20:39;4.03;;;1.50;;
65375;SDS011;51976;47.332;9.404;2022-12-20T14:23:08;2.83;;;1.80;;
65375;SDS011;51976;47.332;9.404;2022-12-20T14:25:38;3.80;;;1.80;;
65375;SDS011;51976;47.332;9.404;2022-12-20T14:28:24;3.17;;;1.70;;
65375;SDS011;51976;47.332;9.404;2022-12-20T14:30:54;2.92;;;1.40;;
65375;SDS011;51976;47.332;9.404;2022-12-20T14:33:26;3.05;;;1.70;;
65375;SDS011;51976;47.332;9.404;2022-12-20T14:35:54;6.07;;;1.70;;
65375;SDS011;51976;47.332;9.404;2022-12-20T14:38:22;7.38;;;1.98;;
65375;SDS011;51976;47.332;9.404;2022-12-20T14:40:52;5.57;;;1.30;;
65375;SDS011;51976;47.332;9.404;2022-12-20T14:43:25;2.35;;;1.58;;
65375;SDS011;51976;47.332;9.404;2022-12-20T14:46:16;7.47;;;1.70;;
65375;SDS011;51976;47.332;9.404;2022-12-20T14:48:43;2.60;;;1.48;;
65375;SDS011;51976;47.332;9.404;2022-12-20T14:51:09;4.55;;;1.75;;
65375;SDS011;51976;47.332;9.404;2022-12-20T14:53:36;2.78;;;1.73;;
65375;SDS011;51976;47.332;9.404;2022-12-20T14:56:03;4.35;;;1.67;;
65375;SDS011;51976;47.332;9.404;2022-12-20T14:58:30;3.13;;;1.30;;
65375;SDS011;51976;47.332;9.404;2022-12-20T15:01:18;3.92;;;1.58;;
65375;SDS011;51976;47.332;9.404;2022-12-20T15:03:51;7.05;;;1.85;;
65375;SDS011;51976;47.332;9.404;2022-12-20T15:06:33;4.75;;;1.60;;
65375;SDS011;51976;47.332;9.404;2022-12-20T15:09:05;5.47;;;1.63;;
65375;SDS011;51976;47.332;9.404;2022-12-20T15:11:30;3.65;;;1.65;;
65375;SDS011;51976;47.332;9.404;2022-12-20T15:13:58;4.35;;;1.60;;
65375;SDS011;51976;47.332;9.404;2022-12-20T15:16:25;6.38;;;2.13;;
65375;SDS011;51976;47.332;9.404;2022-12-20T15:18:56;3.40;;;1.60;;
65375;SDS011;51976;47.332;9.404;2022-12-20T15:21:32;3.40;;;1.65;;
65375;SDS011;51976;47.332;9.404;2022-12-20T15:24:09;4.50;;;2.15;;
65375;SDS011;51976;47.332;9.404;2022-12-20T15:26:37;2.40;;;1.58;;
65375;SDS011;51976;47.332;9.404;2022-12-20T15:29:03;3.60;;;1.67;;
65375;SDS011;51976;47.332;9.404;2022-12-20T15:31:28;5.32;;;1.65;;
65375;SDS011;51976;47.332;9.404;2022-12-20T15:33:56;21.83;;;5.00;;
65375;SDS011;51976;47.332;9.404;2022-12-20T15:36:26;19.10;;;4.40;;
65375;SDS011;51976;47.332;9.404;2022-12-20T15:38:53;16.95;;;4.43;;